sensor_id;sensor_type;location;lat;lon;timestamp;P1;durP1;ratioP1;P2;durP2;ratioP2
50056;SDS011;36875;49.468;11.200;2022-07-29T00:02:23;0.85;;;0.80;;
50056;SDS011;36875;49.468;11.200;2022-07-29T00:04:50;0.90;;;0.80;;
50056;SDS011;36875;49.468;11.200;2022-07-29T00:07:15;1.20;;;0.80;;
50056;SDS011;36875;49.468;11.200;2022-07-29T00:09:41;1.50;;;0.90;;
50056;SDS011;36875;49.468;11.200;2022-07-29T00:12:07;1.00;;;0.90;;
50056;SDS011;36875;49.468;11.200;2022-07-29T00:14:32;0.70;;;0.70;;
50056;SDS011;36875;49.468;11.200;2022-07-29T00:16:58;0.80;;;0.80;;
50056;SDS011;36875;49.468;11.200;2022-07-29T00:19:24;1.10;;;1.00;;
50056;SDS011;36875;49.468;11.200;2022-07-29T00:21:51;1.25;;;1.00;;
50056;SDS011;36875;49.468;11.200;2022-07-29T00:24:16;1.25;;;0.95;;
50056;SDS011;36875;49.468;11.200;2022-07-29T00:26:42;1.38;;;1.00;;
50056;SDS011;36875;49.468;11.200;2022-07-29T00:29:07;0.80;;;0.80;;
50056;SDS011;36875;49.468;11.200;2022-07-29T00:31:33;1.25;;;1.05;;
50056;SDS011;36875;49.468;11.200;2022-07-29T00:33:59;1.25;;;1.10;;
50056;SDS011;36875;49.468;11.200;2022-07-29T00:36:24;0.82;;;0.80;;
50056;SDS011;36875;49.468;11.200;2022-07-29T00:38:51;1.13;;;0.80;;
50056;SDS011;36875;49.468;11.200;2022-07-29T00:41:17;1.00;;;0.80;;
50056;SDS011;36875;49.468;11.200;2022-07-29T00:43:43;1.13;;;1.00;;
50056;SDS011;36875;49.468;11.200;2022-07-29T00:46:09;0.82;;;0.80;;
50056;SDS011;36875;49.468;11.200;2022-07-29T00:48:35;1.85;;;0.90;;
50056;SDS011;36875;49.468;11.200;2022-07-29T00:51:02;0.82;;;0.77;;
50056;SDS011;36875;49.468;11.200;2022-07-29T00:53:29;1.00;;;0.90;;
50056;SDS011;36875;49.468;11.200;2022-07-29T00:55:56;0.80;;;0.80;;
50056;SDS011;36875;49.468;11.200;2022-07-29T00:58:22;1.20;;;1.10;;
50056;SDS011;36875;49.468;11.200;2022-07-29T01:00:48;0.93;;;0.80;;
50056;SDS011;36875;49.468;11.200;2022-07-29T01:03:14;0.80;;;0.80;;
50056;SDS011;36875;49.468;11.200;2022-07-29T01:05:40;1.00;;;0.90;;
50056;SDS011;36875;49.468;11.200;2022-07-29T01:08:08;1.58;;;1.00;;
50056;SDS011;36875;49.468;11.200;2022-07-29T01:10:36;0.80;;;0.80;;
50056;SDS011;36875;49.468;11.200;2022-07-29T01:13:04;1.20;;;0.98;;
50056;SDS011;36875;49.468;11.200;2022-07-29T01:15:30;1.05;;;0.95;;
50056;SDS011;36875;49.468;11.200;2022-07-29T01:18:00;1.10;;;0.98;;
50056;SDS011;36875;49.468;11.200;2022-07-29T01:20:31;2.05;;;1.10;;
50056;SDS011;36875;49.468;11.200;2022-07-29T01:23:28;1.15;;;0.90;;
50056;SDS011;36875;49.468;11.200;2022-07-29T01:26:11;1.13;;;0.95;;
50056;SDS011;36875;49.468;11.200;2022-07-29T01:29:00;1.17;;;0.98;;
50056;SDS011;36875;49.468;11.200;2022-07-29T01:31:31;0.80;;;0.70;;
50056;SDS011;36875;49.468;11.200;2022-07-29T01:34:05;1.10;;;0.82;;
50056;SDS011;36875;49.468;11.200;2022-07-29T01:36:35;0.82;;;0.82;;
50056;SDS011;36875;49.468;11.200;2022-07-29T01:39:06;1.25;;;1.00;;
50056;SDS011;36875;49.468;11.200;2022-07-29T01:41:36;0.87;;;0.87;;
50056;SDS011;36875;49.468;11.200;2022-07-29T01:44:12;1.17;;;1.08;;
50056;SDS011;36875;49.468;11.200;2022-07-29T01:46:44;1.13;;;0.82;;
50056;SDS011;36875;49.468;11.200;2022-07-29T01:49:16;1.88;;;0.90;;
50056;SDS011;36875;49.468;11.200;2022-07-29T01:51:46;1.25;;;1.00;;
50056;SDS011;36875;49.468;11.200;2022-07-29T01:54:16;1.05;;;1.00;;
50056;SDS011;36875;49.468;11.200;2022-07-29T01:56:45;0.80;;;0.80;;
50056;SDS011;36875;49.468;11.200;2022-07-29T01:59:15;1.02;;;0.93;;
50056;SDS011;36875;49.468;11.200;2022-07-29T02:01:42;1.10;;;0.80;;
50056;SDS011;36875;49.468;11.200;2022-07-29T02:04:09;1.10;;;0.90;;
50056;SDS011;36875;49.468;11.200;2022-07-29T02:06:37;1.20;;;1.08;;
50056;SDS011;36875;49.468;11.200;2022-07-29T02:09:05;1.15;;;0.95;;
50056;SDS011;36875;49.468;11.200;2022-07-29T02:11:32;1.15;;;0.95;;
50056;SDS011;36875;49.468;11.200;2022-07-29T02:13:59;1.15;;;0.88;;
50056;SDS011;36875;49.468;11.200;2022-07-29T02:16:28;1.10;;;0.80;;
50056;SDS011;36875;49.468;11.200;2022-07-29T02:18:55;1.27;;;0.90;;
50056;SDS011;36875;49.468;11.200;2022-07-29T02:21:24;0.80;;;0.80;;
50056;SDS011;36875;49.468;11.200;2022-07-29T02:23:52;1.08;;;0.90;;
50056;SDS011;36875;49.468;11.200;2022-07-29T02:26:20;1.20;;;1.00;;
50056;SDS011;36875;49.468;11.200;2022-07-29T02:28:48;1.05;;;0.85;;
50056;SDS011;36875;49.468;11.200;2022-07-29T02:31:15;1.20;;;0.90;;
50056;SDS011;36875;49.468;11.200;2022-07-29T02:33:43;1.00;;;0.93;;
50056;SDS011;36875;49.468;11.200;2022-07-29T02:36:12;2.13;;;0.90;;
50056;SDS011;36875;49.468;11.200;2022-07-29T02:38:38;1.38;;;1.00;;
50056;SDS011;36875;49.468;11.200;2022-07-29T02:41:17;1.40;;;0.80;;
50056;SDS011;36875;49.468;11.200;2022-07-29T02:43:46;1.27;;;0.90;;
50056;SDS011;36875;49.468;11.200;2022-07-29T02:46:14;0.80;;;0.70;;
50056;SDS011;36875;49.468;11.200;2022-07-29T02:48:48;1.13;;;0.95;;
50056;SDS011;36875;49.468;11.200;2022-07-29T02:51:17;1.15;;;1.05;;
50056;SDS011;36875;49.468;11.200;2022-07-29T02:53:49;1.25;;;1.13;;
50056;SDS011;36875;49.468;11.200;2022-07-29T02:56:18;1.15;;;0.90;;
50056;SDS011;36875;49.468;11.200;2022-07-29T02:58:53;1.52;;;0.80;;
50056;SDS011;36875;49.468;11.200;2022-07-29T03:01:22;1.20;;;1.10;;
50056;SDS011;36875;49.468;11.200;2022-07-29T03:03:50;1.00;;;0.90;;
50056;SDS011;36875;49.468;11.200;2022-07-29T03:06:19;1.02;;;0.80;;
50056;SDS011;36875;49.468;11.200;2022-07-29T03:08:47;1.27;;;1.05;;
50056;SDS011;36875;49.468;11.200;2022-07-29T03:11:14;1.00;;;0.90;;
50056;SDS011;36875;49.468;11.200;2022-07-29T03:13:41;0.98;;;0.90;;
50056;SDS011;36875;49.468;11.200;2022-07-29T03:16:07;1.00;;;0.90;;
50056;SDS011;36875;49.468;11.200;2022-07-29T03:18:34;1.00;;;0.90;;
50056;SDS011;36875;49.468;11.200;2022-07-29T03:21:02;1.08;;;0.98;;
50056;SDS011;36875;49.468;11.200;2022-07-29T03:23:28;1.10;;;1.00;;
50056;SDS011;36875;49.468;11.200;2022-07-29T03:25:54;1.20;;;1.02;;
50056;SDS011;36875;49.468;11.200;2022-07-29T03:28:20;0.90;;;0.80;;
50056;SDS011;36875;49.468;11.200;2022-07-29T03:30:47;0.85;;;0.85;;
50056;SDS011;36875;49.468;11.200;2022-07-29T03:33:13;0.95;;;0.80;;
50056;SDS011;36875;49.468;11.200;2022-07-29T03:35:39;0.90;;;0.80;;
50056;SDS011;36875;49.468;11.200;2022-07-29T03:38:06;0.75;;;0.73;;
50056;SDS011;36875;49.468;11.200;2022-07-29T03:40:32;1.30;;;0.85;;
50056;SDS011;36875;49.468;11.200;2022-07-29T03:43:03;1.20;;;1.10;;
50056;SDS011;36875;49.468;11.200;2022-07-29T03:45:30;1.30;;;1.08;;
50056;SDS011;36875;49.468;11.200;2022-07-29T03:47:59;0.82;;;0.82;;
50056;SDS011;36875;49.468;11.200;2022-07-29T03:50:27;0.75;;;0.75;;
50056;SDS011;36875;49.468;11.200;2022-07-29T03:52:54;1.45;;;1.00;;
50056;SDS011;36875;49.468;11.200;2022-07-29T03:55:21;1.05;;;0.95;;
50056;SDS011;36875;49.468;11.200;2022-07-29T03:57:47;1.13;;;1.00;;
50056;SDS011;36875;49.468;11.200;2022-07-29T04:00:13;0.80;;;0.80;;
50056;SDS011;36875;49.468;11.200;2022-07-29T04:02:40;1.00;;;0.82;;
50056;SDS011;36875;49.468;11.200;2022-07-29T04:05:11;1.02;;;0.88;;
50056;SDS011;36875;49.468;11.200;2022-07-29T04:07:37;1.08;;;0.80;;
50056;SDS011;36875;49.468;11.200;2022-07-29T04:10:03;1.05;;;0.95;;
50056;SDS011;36875;49.468;11.200;2022-07-29T04:12:31;0.93;;;0.93;;
50056;SDS011;36875;49.468;11.200;2022-07-29T04:14:56;1.35;;;1.00;;
50056;SDS011;36875;49.468;11.200;2022-07-29T04:17:22;1.42;;;0.88;;
50056;SDS011;36875;49.468;11.200;2022-07-29T04:19:47;1.02;;;0.90;;
50056;SDS011;36875;49.468;11.200;2022-07-29T04:22:13;0.95;;;0.82;;
50056;SDS011;36875;49.468;11.200;2022-07-29T04:24:39;0.80;;;0.80;;
50056;SDS011;36875;49.468;11.200;2022-07-29T04:27:04;1.00;;;0.90;;
50056;SDS011;36875;49.468;11.200;2022-07-29T04:29:31;1.02;;;0.82;;
50056;SDS011;36875;49.468;11.200;2022-07-29T04:31:57;0.93;;;0.90;;
50056;SDS011;36875;49.468;11.200;2022-07-29T04:34:22;1.20;;;1.00;;
50056;SDS011;36875;49.468;11.200;2022-07-29T04:36:48;1.52;;;1.00;;
50056;SDS011;36875;49.468;11.200;2022-07-29T04:39:14;1.00;;;0.82;;
50056;SDS011;36875;49.468;11.200;2022-07-29T04:41:39;2.17;;;1.10;;
50056;SDS011;36875;49.468;11.200;2022-07-29T04:44:05;1.08;;;0.90;;
50056;SDS011;36875;49.468;11.200;2022-07-29T04:46:32;1.17;;;1.08;;
50056;SDS011;36875;49.468;11.200;2022-07-29T04:48:58;1.42;;;0.88;;
50056;SDS011;36875;49.468;11.200;2022-07-29T04:51:24;2.95;;;1.00;;
50056;SDS011;36875;49.468;11.200;2022-07-29T04:53:49;1.10;;;0.95;;
50056;SDS011;36875;49.468;11.200;2022-07-29T04:56:15;0.88;;;0.82;;
50056;SDS011;36875;49.468;11.200;2022-07-29T04:58:40;1.60;;;0.85;;
50056;SDS011;36875;49.468;11.200;2022-07-29T05:01:06;1.20;;;1.00;;
50056;SDS011;36875;49.468;11.200;2022-07-29T05:03:33;1.08;;;0.90;;
50056;SDS011;36875;49.468;11.200;2022-07-29T05:05:59;0.90;;;0.90;;
50056;SDS011;36875;49.468;11.200;2022-07-29T05:08:24;1.02;;;0.93;;
50056;SDS011;36875;49.468;11.200;2022-07-29T05:10:50;0.80;;;0.80;;
50056;SDS011;36875;49.468;11.200;2022-07-29T05:13:15;1.00;;;0.90;;
50056;SDS011;36875;49.468;11.200;2022-07-29T05:15:41;1.10;;;0.75;;
50056;SDS011;36875;49.468;11.200;2022-07-29T05:18:06;1.05;;;0.95;;
50056;SDS011;36875;49.468;11.200;2022-07-29T05:20:33;0.90;;;0.75;;
50056;SDS011;36875;49.468;11.200;2022-07-29T05:23:00;1.13;;;0.80;;
50056;SDS011;36875;49.468;11.200;2022-07-29T05:25:27;1.00;;;0.90;;
50056;SDS011;36875;49.468;11.200;2022-07-29T05:27:54;1.20;;;1.00;;
50056;SDS011;36875;49.468;11.200;2022-07-29T05:30:20;1.13;;;0.90;;
50056;SDS011;36875;49.468;11.200;2022-07-29T05:32:46;1.13;;;0.82;;
50056;SDS011;36875;49.468;11.200;2022-07-29T05:35:12;1.05;;;0.93;;
50056;SDS011;36875;49.468;11.200;2022-07-29T05:37:39;2.33;;;1.10;;
50056;SDS011;36875;49.468;11.200;2022-07-29T05:40:06;1.65;;;1.10;;
50056;SDS011;36875;49.468;11.200;2022-07-29T05:42:32;1.35;;;1.08;;
50056;SDS011;36875;49.468;11.200;2022-07-29T05:44:58;1.20;;;1.10;;
50056;SDS011;36875;49.468;11.200;2022-07-29T05:47:25;1.50;;;1.23;;
50056;SDS011;36875;49.468;11.200;2022-07-29T05:49:50;1.10;;;0.90;;
50056;SDS011;36875;49.468;11.200;2022-07-29T05:52:16;0.88;;;0.80;;
50056;SDS011;36875;49.468;11.200;2022-07-29T05:54:43;1.02;;;0.80;;
50056;SDS011;36875;49.468;11.200;2022-07-29T05:57:14;1.52;;;0.80;;
50056;SDS011;36875;49.468;11.200;2022-07-29T05:59:40;1.25;;;0.88;;
50056;SDS011;36875;49.468;11.200;2022-07-29T06:02:06;1.15;;;0.90;;
50056;SDS011;36875;49.468;11.200;2022-07-29T06:04:31;1.05;;;0.90;;
50056;SDS011;36875;49.468;11.200;2022-07-29T06:06:57;0.98;;;0.93;;
50056;SDS011;36875;49.468;11.200;2022-07-29T06:09:23;1.23;;;1.10;;
50056;SDS011;36875;49.468;11.200;2022-07-29T06:11:50;1.42;;;0.88;;
50056;SDS011;36875;49.468;11.200;2022-07-29T06:14:15;0.93;;;0.90;;
50056;SDS011;36875;49.468;11.200;2022-07-29T06:16:41;0.90;;;0.75;;
50056;SDS011;36875;49.468;11.200;2022-07-29T06:19:07;0.82;;;0.82;;
50056;SDS011;36875;49.468;11.200;2022-07-29T06:21:33;1.15;;;0.90;;
50056;SDS011;36875;49.468;11.200;2022-07-29T06:23:59;0.88;;;0.88;;
50056;SDS011;36875;49.468;11.200;2022-07-29T06:26:24;1.08;;;0.93;;
50056;SDS011;36875;49.468;11.200;2022-07-29T06:28:51;1.45;;;1.00;;
50056;SDS011;36875;49.468;11.200;2022-07-29T06:31:17;1.15;;;1.05;;
50056;SDS011;36875;49.468;11.200;2022-07-29T06:33:42;0.95;;;0.80;;
50056;SDS011;36875;49.468;11.200;2022-07-29T06:36:08;0.90;;;0.80;;
50056;SDS011;36875;49.468;11.200;2022-07-29T06:38:34;1.23;;;1.00;;
50056;SDS011;36875;49.468;11.200;2022-07-29T06:41:00;1.00;;;0.95;;
50056;SDS011;36875;49.468;11.200;2022-07-29T06:43:31;1.25;;;0.98;;
50056;SDS011;36875;49.468;11.200;2022-07-29T06:46:01;1.60;;;1.10;;
50056;SDS011;36875;49.468;11.200;2022-07-29T06:48:28;1.42;;;0.90;;
50056;SDS011;36875;49.468;11.200;2022-07-29T06:50:54;1.42;;;1.02;;
50056;SDS011;36875;49.468;11.200;2022-07-29T06:53:20;1.20;;;1.02;;
50056;SDS011;36875;49.468;11.200;2022-07-29T06:55:45;1.15;;;0.98;;
50056;SDS011;36875;49.468;11.200;2022-07-29T06:58:11;1.17;;;1.00;;
50056;SDS011;36875;49.468;11.200;2022-07-29T07:00:37;1.52;;;1.05;;
50056;SDS011;36875;49.468;11.200;2022-07-29T07:03:04;0.80;;;0.80;;
50056;SDS011;36875;49.468;11.200;2022-07-29T07:05:29;1.20;;;0.90;;
50056;SDS011;36875;49.468;11.200;2022-07-29T07:07:55;0.82;;;0.80;;
50056;SDS011;36875;49.468;11.200;2022-07-29T07:10:21;0.90;;;0.90;;
50056;SDS011;36875;49.468;11.200;2022-07-29T07:12:46;1.42;;;0.95;;
50056;SDS011;36875;49.468;11.200;2022-07-29T07:15:12;0.70;;;0.70;;
50056;SDS011;36875;49.468;11.200;2022-07-29T07:17:37;1.10;;;1.00;;
50056;SDS011;36875;49.468;11.200;2022-07-29T07:20:05;0.80;;;0.80;;
50056;SDS011;36875;49.468;11.200;2022-07-29T07:22:31;1.10;;;0.93;;
50056;SDS011;36875;49.468;11.200;2022-07-29T07:24:57;1.13;;;0.90;;
50056;SDS011;36875;49.468;11.200;2022-07-29T07:27:23;1.17;;;0.90;;
50056;SDS011;36875;49.468;11.200;2022-07-29T07:29:48;1.55;;;1.05;;
50056;SDS011;36875;49.468;11.200;2022-07-29T07:32:14;2.05;;;1.02;;
50056;SDS011;36875;49.468;11.200;2022-07-29T07:34:41;1.63;;;1.05;;
50056;SDS011;36875;49.468;11.200;2022-07-29T07:37:08;1.45;;;1.00;;
50056;SDS011;36875;49.468;11.200;2022-07-29T07:39:34;2.17;;;0.90;;
50056;SDS011;36875;49.468;11.200;2022-07-29T07:41:59;0.80;;;0.80;;
50056;SDS011;36875;49.468;11.200;2022-07-29T07:44:25;0.80;;;0.80;;
50056;SDS011;36875;49.468;11.200;2022-07-29T07:46:51;1.23;;;1.10;;
50056;SDS011;36875;49.468;11.200;2022-07-29T07:49:17;1.27;;;1.05;;
50056;SDS011;36875;49.468;11.200;2022-07-29T07:51:42;0.75;;;0.75;;
50056;SDS011;36875;49.468;11.200;2022-07-29T07:54:10;1.35;;;0.98;;
50056;SDS011;36875;49.468;11.200;2022-07-29T07:56:35;0.80;;;0.80;;
50056;SDS011;36875;49.468;11.200;2022-07-29T07:59:01;1.15;;;0.90;;
50056;SDS011;36875;49.468;11.200;2022-07-29T08:01:26;1.10;;;0.90;;
50056;SDS011;36875;49.468;11.200;2022-07-29T08:03:52;0.73;;;0.73;;
50056;SDS011;36875;49.468;11.200;2022-07-29T08:06:18;1.63;;;1.00;;
50056;SDS011;36875;49.468;11.200;2022-07-29T08:08:44;0.88;;;0.88;;
50056;SDS011;36875;49.468;11.200;2022-07-29T08:11:11;0.88;;;0.80;;
50056;SDS011;36875;49.468;11.200;2022-07-29T08:13:37;1.00;;;0.90;;
50056;SDS011;36875;49.468;11.200;2022-07-29T08:16:03;0.70;;;0.70;;
50056;SDS011;36875;49.468;11.200;2022-07-29T08:18:40;0.80;;;0.80;;
50056;SDS011;36875;49.468;11.200;2022-07-29T08:21:06;0.95;;;0.85;;
50056;SDS011;36875;49.468;11.200;2022-07-29T08:23:32;0.85;;;0.82;;
50056;SDS011;36875;49.468;11.200;2022-07-29T08:26:04;1.00;;;0.90;;
50056;SDS011;36875;49.468;11.200;2022-07-29T08:28:31;1.73;;;1.02;;
50056;SDS011;36875;49.468;11.200;2022-07-29T08:30:57;1.00;;;0.90;;
50056;SDS011;36875;49.468;11.200;2022-07-29T08:33:23;1.25;;;1.15;;
50056;SDS011;36875;49.468;11.200;2022-07-29T08:35:48;0.77;;;0.77;;
50056;SDS011;36875;49.468;11.200;2022-07-29T08:38:15;1.25;;;0.90;;
50056;SDS011;36875;49.468;11.200;2022-07-29T08:40:40;0.98;;;0.88;;
50056;SDS011;36875;49.468;11.200;2022-07-29T08:43:06;0.82;;;0.82;;
50056;SDS011;36875;49.468;11.200;2022-07-29T08:45:40;0.80;;;0.80;;
50056;SDS011;36875;49.468;11.200;2022-07-29T08:48:08;1.13;;;0.90;;
50056;SDS011;36875;49.468;11.200;2022-07-29T08:50:34;1.40;;;0.90;;
50056;SDS011;36875;49.468;11.200;2022-07-29T08:53:00;0.98;;;0.70;;
50056;SDS011;36875;49.468;11.200;2022-07-29T08:55:26;0.90;;;0.90;;
50056;SDS011;36875;49.468;11.200;2022-07-29T08:57:52;1.08;;;0.95;;
50056;SDS011;36875;49.468;11.200;2022-07-29T09:00:18;1.00;;;0.85;;
50056;SDS011;36875;49.468;11.200;2022-07-29T09:02:46;0.98;;;0.90;;
50056;SDS011;36875;49.468;11.200;2022-07-29T09:05:16;1.23;;;0.95;;
50056;SDS011;36875;49.468;11.200;2022-07-29T09:07:42;0.80;;;0.80;;
50056;SDS011;36875;49.468;11.200;2022-07-29T09:10:09;1.05;;;0.95;;
50056;SDS011;36875;49.468;11.200;2022-07-29T09:12:35;0.77;;;0.77;;
50056;SDS011;36875;49.468;11.200;2022-07-29T09:15:01;0.82;;;0.77;;
50056;SDS011;36875;49.468;11.200;2022-07-29T09:17:39;1.20;;;1.02;;
50056;SDS011;36875;49.468;11.200;2022-07-29T09:20:09;0.80;;;0.80;;
50056;SDS011;36875;49.468;11.200;2022-07-29T09:22:37;1.20;;;0.90;;
50056;SDS011;36875;49.468;11.200;2022-07-29T09:25:03;0.73;;;0.73;;
50056;SDS011;36875;49.468;11.200;2022-07-29T09:27:29;1.00;;;0.90;;
50056;SDS011;36875;49.468;11.200;2022-07-29T09:29:58;1.20;;;0.82;;
50056;SDS011;36875;49.468;11.200;2022-07-29T09:32:24;0.70;;;0.70;;
50056;SDS011;36875;49.468;11.200;2022-07-29T09:34:51;1.10;;;1.00;;
50056;SDS011;36875;49.468;11.200;2022-07-29T09:37:42;1.38;;;0.90;;
50056;SDS011;36875;49.468;11.200;2022-07-29T09:40:11;1.42;;;1.00;;
50056;SDS011;36875;49.468;11.200;2022-07-29T09:42:37;0.90;;;0.80;;
50056;SDS011;36875;49.468;11.200;2022-07-29T09:45:03;0.80;;;0.70;;
50056;SDS011;36875;49.468;11.200;2022-07-29T09:47:40;0.70;;;0.70;;
50056;SDS011;36875;49.468;11.200;2022-07-29T09:50:07;1.05;;;0.90;;
50056;SDS011;36875;49.468;11.200;2022-07-29T09:52:41;2.13;;;1.10;;
50056;SDS011;36875;49.468;11.200;2022-07-29T09:55:10;1.00;;;0.82;;
50056;SDS011;36875;49.468;11.200;2022-07-29T09:57:36;1.05;;;0.90;;
50056;SDS011;36875;49.468;11.200;2022-07-29T10:00:03;0.82;;;0.82;;
50056;SDS011;36875;49.468;11.200;2022-07-29T10:02:34;1.02;;;0.80;;
50056;SDS011;36875;49.468;11.200;2022-07-29T10:05:01;1.05;;;0.93;;
50056;SDS011;36875;49.468;11.200;2022-07-29T10:07:43;1.08;;;0.85;;
50056;SDS011;36875;49.468;11.200;2022-07-29T10:10:10;1.00;;;0.90;;
50056;SDS011;36875;49.468;11.200;2022-07-29T10:12:50;1.02;;;0.80;;
50056;SDS011;36875;49.468;11.200;2022-07-29T10:15:18;1.00;;;0.90;;
50056;SDS011;36875;49.468;11.200;2022-07-29T10:17:45;1.10;;;0.82;;
50056;SDS011;36875;49.468;11.200;2022-07-29T10:20:13;1.77;;;0.90;;
50056;SDS011;36875;49.468;11.200;2022-07-29T10:22:39;0.75;;;0.75;;
50056;SDS011;36875;49.468;11.200;2022-07-29T10:25:06;0.80;;;0.80;;
50056;SDS011;36875;49.468;11.200;2022-07-29T10:27:34;1.23;;;0.95;;
50056;SDS011;36875;49.468;11.200;2022-07-29T10:29:59;0.90;;;0.80;;
50056;SDS011;36875;49.468;11.200;2022-07-29T10:32:30;1.30;;;0.93;;
50056;SDS011;36875;49.468;11.200;2022-07-29T10:35:12;0.90;;;0.80;;
50056;SDS011;36875;49.468;11.200;2022-07-29T10:38:02;1.35;;;0.90;;
50056;SDS011;36875;49.468;11.200;2022-07-29T10:40:39;1.10;;;1.00;;
50056;SDS011;36875;49.468;11.200;2022-07-29T10:43:35;0.80;;;0.80;;
50056;SDS011;36875;49.468;11.200;2022-07-29T10:46:03;1.55;;;1.00;;
50056;SDS011;36875;49.468;11.200;2022-07-29T10:48:29;0.85;;;0.80;;
50056;SDS011;36875;49.468;11.200;2022-07-29T10:50:55;1.20;;;0.90;;
50056;SDS011;36875;49.468;11.200;2022-07-29T10:53:23;0.85;;;0.80;;
50056;SDS011;36875;49.468;11.200;2022-07-29T10:55:51;0.98;;;0.90;;
50056;SDS011;36875;49.468;11.200;2022-07-29T10:58:17;0.93;;;0.90;;
50056;SDS011;36875;49.468;11.200;2022-07-29T11:00:44;0.85;;;0.80;;
50056;SDS011;36875;49.468;11.200;2022-07-29T11:06:09;1.08;;;0.90;;
50056;SDS011;36875;49.468;11.200;2022-07-29T11:08:35;0.80;;;0.80;;
50056;SDS011;36875;49.468;11.200;2022-07-29T11:13:57;0.90;;;0.90;;
50056;SDS011;36875;49.468;11.200;2022-07-29T11:16:23;1.08;;;0.98;;
50056;SDS011;36875;49.468;11.200;2022-07-29T11:21:46;1.05;;;0.80;;
50056;SDS011;36875;49.468;11.200;2022-07-29T11:24:19;1.20;;;0.90;;
50056;SDS011;36875;49.468;11.200;2022-07-29T11:29:33;0.88;;;0.82;;
50056;SDS011;36875;49.468;11.200;2022-07-29T11:32:08;1.00;;;0.90;;
50056;SDS011;36875;49.468;11.200;2022-07-29T11:34:34;1.10;;;0.98;;
50056;SDS011;36875;49.468;11.200;2022-07-29T11:37:21;1.10;;;1.00;;
50056;SDS011;36875;49.468;11.200;2022-07-29T11:42:45;1.00;;;0.90;;
50056;SDS011;36875;49.468;11.200;2022-07-29T11:47:39;0.80;;;0.80;;
50056;SDS011;36875;49.468;11.200;2022-07-29T11:50:07;1.02;;;0.93;;
50056;SDS011;36875;49.468;11.200;2022-07-29T11:52:34;0.80;;;0.80;;
50056;SDS011;36875;49.468;11.200;2022-07-29T11:55:03;1.05;;;0.90;;
50056;SDS011;36875;49.468;11.200;2022-07-29T11:57:30;1.17;;;1.00;;
50056;SDS011;36875;49.468;11.200;2022-07-29T11:59:58;1.00;;;0.90;;
50056;SDS011;36875;49.468;11.200;2022-07-29T12:02:24;1.08;;;0.88;;
50056;SDS011;36875;49.468;11.200;2022-07-29T12:04:49;1.35;;;0.77;;
50056;SDS011;36875;49.468;11.200;2022-07-29T12:07:16;1.33;;;1.10;;
50056;SDS011;36875;49.468;11.200;2022-07-29T12:09:49;1.52;;;1.05;;
50056;SDS011;36875;49.468;11.200;2022-07-29T12:12:16;4.15;;;1.60;;
50056;SDS011;36875;49.468;11.200;2022-07-29T12:14:42;2.55;;;2.10;;
50056;SDS011;36875;49.468;11.200;2022-07-29T12:17:24;3.28;;;2.30;;
50056;SDS011;36875;49.468;11.200;2022-07-29T12:19:51;4.05;;;2.25;;
50056;SDS011;36875;49.468;11.200;2022-07-29T12:22:23;3.40;;;2.25;;
50056;SDS011;36875;49.468;11.200;2022-07-29T12:24:50;4.28;;;2.03;;
50056;SDS011;36875;49.468;11.200;2022-07-29T12:27:16;3.22;;;2.30;;
50056;SDS011;36875;49.468;11.200;2022-07-29T12:29:43;2.00;;;1.80;;
50056;SDS011;36875;49.468;11.200;2022-07-29T12:32:08;2.67;;;1.90;;
50056;SDS011;36875;49.468;11.200;2022-07-29T12:34:36;6.55;;;1.90;;
50056;SDS011;36875;49.468;11.200;2022-07-29T12:37:02;4.07;;;1.85;;
50056;SDS011;36875;49.468;11.200;2022-07-29T12:39:28;3.45;;;2.10;;
50056;SDS011;36875;49.468;11.200;2022-07-29T12:41:54;7.97;;;2.47;;
50056;SDS011;36875;49.468;11.200;2022-07-29T12:44:20;7.45;;;2.50;;
50056;SDS011;36875;49.468;11.200;2022-07-29T12:46:46;5.38;;;2.65;;
50056;SDS011;36875;49.468;11.200;2022-07-29T12:51:53;4.95;;;3.00;;
50056;SDS011;36875;49.468;11.200;2022-07-29T12:54:19;8.65;;;3.45;;
50056;SDS011;36875;49.468;11.200;2022-07-29T12:56:45;5.93;;;3.53;;
50056;SDS011;36875;49.468;11.200;2022-07-29T12:59:11;6.13;;;3.45;;
50056;SDS011;36875;49.468;11.200;2022-07-29T13:01:38;6.57;;;3.65;;
50056;SDS011;36875;49.468;11.200;2022-07-29T13:04:04;7.97;;;3.50;;
50056;SDS011;36875;49.468;11.200;2022-07-29T13:06:31;6.38;;;3.50;;
50056;SDS011;36875;49.468;11.200;2022-07-29T13:09:04;5.70;;;3.50;;
50056;SDS011;36875;49.468;11.200;2022-07-29T13:11:32;5.90;;;3.70;;
50056;SDS011;36875;49.468;11.200;2022-07-29T13:13:58;9.13;;;3.72;;
50056;SDS011;36875;49.468;11.200;2022-07-29T13:16:24;6.82;;;3.92;;
50056;SDS011;36875;49.468;11.200;2022-07-29T13:19:02;9.38;;;3.72;;
50056;SDS011;36875;49.468;11.200;2022-07-29T13:21:29;4.00;;;3.53;;
50056;SDS011;36875;49.468;11.200;2022-07-29T13:23:55;6.10;;;3.70;;
50056;SDS011;36875;49.468;11.200;2022-07-29T13:26:22;7.47;;;4.25;;
50056;SDS011;36875;49.468;11.200;2022-07-29T13:28:47;9.40;;;3.65;;
50056;SDS011;36875;49.468;11.200;2022-07-29T13:31:13;7.68;;;3.88;;
50056;SDS011;36875;49.468;11.200;2022-07-29T13:33:39;8.45;;;3.63;;
50056;SDS011;36875;49.468;11.200;2022-07-29T13:36:04;7.70;;;3.75;;
50056;SDS011;36875;49.468;11.200;2022-07-29T13:38:30;9.63;;;3.70;;
50056;SDS011;36875;49.468;11.200;2022-07-29T13:40:56;6.68;;;3.70;;
50056;SDS011;36875;49.468;11.200;2022-07-29T13:43:23;8.95;;;4.03;;
50056;SDS011;36875;49.468;11.200;2022-07-29T13:45:49;4.60;;;3.30;;
50056;SDS011;36875;49.468;11.200;2022-07-29T13:48:14;4.70;;;3.88;;
50056;SDS011;36875;49.468;11.200;2022-07-29T13:50:40;6.07;;;3.50;;
50056;SDS011;36875;49.468;11.200;2022-07-29T13:53:06;7.05;;;3.67;;
50056;SDS011;36875;49.468;11.200;2022-07-29T13:55:31;5.18;;;3.10;;
50056;SDS011;36875;49.468;11.200;2022-07-29T13:57:57;5.93;;;3.55;;
50056;SDS011;36875;49.468;11.200;2022-07-29T14:00:24;4.65;;;3.35;;
50056;SDS011;36875;49.468;11.200;2022-07-29T14:02:51;10.52;;;3.53;;
50056;SDS011;36875;49.468;11.200;2022-07-29T14:05:17;8.52;;;3.17;;
50056;SDS011;36875;49.468;11.200;2022-07-29T14:07:43;4.80;;;3.45;;
50056;SDS011;36875;49.468;11.200;2022-07-29T14:10:09;9.95;;;3.50;;
50056;SDS011;36875;49.468;11.200;2022-07-29T14:12:35;5.93;;;3.17;;
50056;SDS011;36875;49.468;11.200;2022-07-29T14:15:01;8.60;;;3.67;;
50056;SDS011;36875;49.468;11.200;2022-07-29T14:17:28;6.25;;;3.28;;
50056;SDS011;36875;49.468;11.200;2022-07-29T14:19:53;8.13;;;3.38;;
50056;SDS011;36875;49.468;11.200;2022-07-29T14:22:19;7.18;;;3.38;;
50056;SDS011;36875;49.468;11.200;2022-07-29T14:24:45;5.25;;;3.72;;
50056;SDS011;36875;49.468;11.200;2022-07-29T14:27:10;8.07;;;3.63;;
50056;SDS011;36875;49.468;11.200;2022-07-29T14:29:36;6.70;;;4.05;;
50056;SDS011;36875;49.468;11.200;2022-07-29T14:32:03;7.03;;;3.08;;
50056;SDS011;36875;49.468;11.200;2022-07-29T14:34:30;7.13;;;3.45;;
50056;SDS011;36875;49.468;11.200;2022-07-29T14:36:56;5.88;;;3.28;;
50056;SDS011;36875;49.468;11.200;2022-07-29T14:39:21;11.25;;;4.15;;
50056;SDS011;36875;49.468;11.200;2022-07-29T14:41:48;12.20;;;3.70;;
50056;SDS011;36875;49.468;11.200;2022-07-29T14:44:13;6.93;;;3.10;;
50056;SDS011;36875;49.468;11.200;2022-07-29T14:46:39;6.47;;;3.40;;
50056;SDS011;36875;49.468;11.200;2022-07-29T14:49:05;6.40;;;3.75;;
50056;SDS011;36875;49.468;11.200;2022-07-29T14:51:32;8.38;;;3.38;;
50056;SDS011;36875;49.468;11.200;2022-07-29T14:53:58;6.70;;;3.45;;
50056;SDS011;36875;49.468;11.200;2022-07-29T14:56:23;9.40;;;5.88;;